createdAt,value
2018-10-21T00:00:20.868Z,6.60
2018-10-21T00:02:53.444Z,6.60
2018-10-21T00:05:25.866Z,6.50
2018-10-21T00:07:58.422Z,6.50
2018-10-21T00:10:31.335Z,6.40
2018-10-21T00:16:01.838Z,6.20
2018-10-21T00:21:36.624Z,6.10
2018-10-21T00:24:09.437Z,6.00
2018-10-21T00:26:42.256Z,5.90
2018-10-21T00:29:15.177Z,5.80
2018-10-21T00:31:49.075Z,5.80
2018-10-21T00:34:21.972Z,5.70
2018-10-21T00:36:54.450Z,5.70
2018-10-21T00:39:28.015Z,5.60
2018-10-21T00:42:01.206Z,5.50
2018-10-21T00:44:33.518Z,5.40
2018-10-21T00:47:05.508Z,5.30
2018-10-21T00:49:38.137Z,5.30
2018-10-21T00:52:11.807Z,5.20
2018-10-21T00:54:44.712Z,5.10
2018-10-21T00:57:18.243Z,5.00
2018-10-21T00:59:51.557Z,4.90
2018-10-21T01:02:25.021Z,4.80
2018-10-21T01:04:58.126Z,4.70
2018-10-21T01:07:32.160Z,4.60
2018-10-21T01:10:06.502Z,4.40
2018-10-21T01:12:42.444Z,4.40
2018-10-21T01:15:16.320Z,4.30
2018-10-21T01:17:53.740Z,4.30
2018-10-21T01:20:28.416Z,4.20
2018-10-21T01:23:02.102Z,4.20
2018-10-21T01:25:35.873Z,4.20
2018-10-21T01:28:10.981Z,4.10
2018-10-21T01:30:48.279Z,4.00
2018-10-21T01:33:22.662Z,3.90
2018-10-21T01:36:02.923Z,3.90
2018-10-21T01:38:38.096Z,3.80
2018-10-21T01:44:08.116Z,3.60
2018-10-21T01:46:43.267Z,3.60
2018-10-21T01:49:18.241Z,3.40
2018-10-21T01:51:54.277Z,3.30
2018-10-21T01:54:29.112Z,3.20
2018-10-21T01:57:22.551Z,3.20
2018-10-21T01:59:56.663Z,3.20
2018-10-21T02:02:29.666Z,3.20
2018-10-21T02:05:04.401Z,3.00
2018-10-21T02:07:38.194Z,2.90
2018-10-21T02:10:12.154Z,2.90
2018-10-21T02:12:45.581Z,2.80
2018-10-21T02:15:19.838Z,2.80
2018-10-21T02:17:55.303Z,2.80
2018-10-21T02:20:28.828Z,2.90
2018-10-21T02:23:01.581Z,2.90
2018-10-21T02:25:33.834Z,2.90
2018-10-21T02:28:06.638Z,2.80
2018-10-21T02:30:39.055Z,2.70
2018-10-21T02:33:11.954Z,2.50
2018-10-21T02:35:45.378Z,2.40
2018-10-21T02:38:19.291Z,2.30
2018-10-21T02:41:28.905Z,2.40
2018-10-21T02:44:02.557Z,2.40
2018-10-21T02:46:36.506Z,2.30
2018-10-21T02:49:11.954Z,2.30
2018-10-21T02:51:46.205Z,2.30
2018-10-21T02:54:31.427Z,2.30
2018-10-21T02:57:04.878Z,2.30
2018-10-21T02:59:38.336Z,2.20
2018-10-21T03:02:13.556Z,2.10
2018-10-21T03:04:46.766Z,2.20
2018-10-21T03:07:22.253Z,2.20
2018-10-21T03:09:57.623Z,2.20
2018-10-21T03:12:31.546Z,2.10
2018-10-21T03:15:04.676Z,2.10
2018-10-21T03:17:39.345Z,2.10
2018-10-21T03:20:13.496Z,1.90
2018-10-21T03:22:47.359Z,1.90
2018-10-21T03:25:21.331Z,1.90
2018-10-21T03:27:56.341Z,1.80
2018-10-21T03:30:30.309Z,1.80
2018-10-21T03:33:04.593Z,1.70
2018-10-21T03:35:38.768Z,1.60
2018-10-21T03:38:13.343Z,1.70
2018-10-21T03:40:47.533Z,1.60
2018-10-21T03:43:21.960Z,1.60
2018-10-21T03:45:56.084Z,1.60
2018-10-21T03:48:29.926Z,1.60
2018-10-21T03:51:03.016Z,1.60
2018-10-21T03:53:36.441Z,1.70
2018-10-21T03:56:08.729Z,1.70
2018-10-21T03:58:41.068Z,1.60
2018-10-21T04:01:12.890Z,1.60
2018-10-21T04:03:45.668Z,1.50
2018-10-21T04:06:18.005Z,1.40
2018-10-21T04:08:53.490Z,1.30
2018-10-21T04:11:27.763Z,1.30
2018-10-21T04:14:01.840Z,1.20
2018-10-21T04:16:36.367Z,1.10
2018-10-21T04:19:11.147Z,1.00
2018-10-21T04:21:46.048Z,0.90
2018-10-21T04:24:18.485Z,0.70
2018-10-21T04:26:51.438Z,0.60
2018-10-21T04:29:24.380Z,0.60
2018-10-21T04:31:58.156Z,0.60
2018-10-21T04:34:31.295Z,0.70
2018-10-21T04:37:13.889Z,0.90
2018-10-21T04:39:57.490Z,1.10
2018-10-21T04:42:33.603Z,1.30
2018-10-21T04:45:07.376Z,1.50
2018-10-21T04:47:42.424Z,1.70
2018-10-21T04:50:17.490Z,1.90
2018-10-21T04:52:52.206Z,2.10
2018-10-21T04:55:27.632Z,2.10
2018-10-21T04:58:02.521Z,2.00
2018-10-21T05:00:37.830Z,1.90
2018-10-21T05:03:13.402Z,1.80
2018-10-21T05:05:48.473Z,1.70
2018-10-21T05:08:22.560Z,1.70
2018-10-21T05:10:56.876Z,1.70
2018-10-21T05:13:32.624Z,1.70
2018-10-21T05:16:06.153Z,1.70
2018-10-21T05:18:39.645Z,1.60
2018-10-21T05:21:13.495Z,1.50
2018-10-21T05:23:46.614Z,1.40
2018-10-21T05:26:19.208Z,1.30
2018-10-21T05:28:51.563Z,1.20
2018-10-21T05:31:24.732Z,1.10
2018-10-21T05:33:59.275Z,1.10
2018-10-21T05:36:32.558Z,1.10
2018-10-21T05:39:05.428Z,1.10
2018-10-21T05:41:39.311Z,1.20
2018-10-21T05:44:14.924Z,1.20
2018-10-21T05:46:53.871Z,1.30
2018-10-21T05:49:27.842Z,1.30
2018-10-21T05:52:02.633Z,1.20
2018-10-21T05:54:40.195Z,1.20
2018-10-21T05:57:14.816Z,1.20
2018-10-21T05:59:48.984Z,1.30
2018-10-21T06:02:23.751Z,1.20
2018-10-21T06:04:59.431Z,1.10
2018-10-21T06:07:34.462Z,1.00
2018-10-21T06:10:10.064Z,1.00
2018-10-21T06:12:43.650Z,1.00
2018-10-21T06:15:18.446Z,1.00
2018-10-21T06:17:52.899Z,1.10
2018-10-21T06:20:31.187Z,1.10
2018-10-21T06:23:05.749Z,1.10
2018-10-21T06:25:41.680Z,1.10
2018-10-21T06:28:17.843Z,1.20
2018-10-21T06:30:52.430Z,1.30
2018-10-21T06:33:27.525Z,1.20
2018-10-21T06:36:01.905Z,1.30
2018-10-21T06:38:36.783Z,1.30
2018-10-21T06:41:10.111Z,1.30
2018-10-21T06:43:42.978Z,1.30
2018-10-21T06:46:16.000Z,1.40
2018-10-21T06:48:48.690Z,1.50
2018-10-21T06:51:23.037Z,1.50
2018-10-21T06:56:50.074Z,1.60
2018-10-21T06:59:24.587Z,1.60
2018-10-21T07:01:59.918Z,1.60
2018-10-21T07:04:34.341Z,1.60
2018-10-21T07:07:08.079Z,1.60
2018-10-21T07:09:42.761Z,1.60
2018-10-21T07:12:18.981Z,1.60
2018-10-21T07:14:54.936Z,1.60
2018-10-21T07:17:28.622Z,1.60
2018-10-21T07:20:03.950Z,1.60
2018-10-21T07:22:38.675Z,1.60
2018-10-21T07:25:11.929Z,1.50
2018-10-21T07:27:44.329Z,1.60
2018-10-21T07:30:16.781Z,1.60
2018-10-21T07:32:50.579Z,1.50
2018-10-21T07:35:23.251Z,1.50
2018-10-21T07:37:55.864Z,1.50
2018-10-21T07:40:30.424Z,1.50
2018-10-21T07:43:04.852Z,1.50
2018-10-21T07:45:38.790Z,1.50
2018-10-21T07:48:12.832Z,1.40
2018-10-21T07:50:47.758Z,1.30
2018-10-21T07:53:20.906Z,1.30
2018-10-21T07:55:54.365Z,1.20
2018-10-21T07:58:29.035Z,1.10
2018-10-21T08:01:03.305Z,1.00
2018-10-21T08:03:38.839Z,0.80
2018-10-21T08:06:34.900Z,0.70
2018-10-21T08:09:12.848Z,0.70
2018-10-21T08:11:47.272Z,0.60
2018-10-21T08:14:21.234Z,0.60
2018-10-21T08:16:55.843Z,0.60
2018-10-21T08:19:29.878Z,0.60
2018-10-21T08:22:04.645Z,0.60
2018-10-21T08:24:39.025Z,0.60
2018-10-21T08:27:13.110Z,0.70
2018-10-21T08:29:46.293Z,0.80
2018-10-21T08:32:19.049Z,0.80
2018-10-21T08:34:51.396Z,0.80
2018-10-21T08:37:24.609Z,0.80
2018-10-21T08:39:58.851Z,0.70
2018-10-21T08:42:32.768Z,0.70
2018-10-21T08:45:15.051Z,0.70
2018-10-21T08:47:48.964Z,0.70
2018-10-21T08:50:23.849Z,0.70
2018-10-21T08:53:00.123Z,0.70
2018-10-21T08:55:35.041Z,0.70
2018-10-21T08:58:08.292Z,0.70
2018-10-21T09:00:42.636Z,0.80
2018-10-21T09:03:17.854Z,0.90
2018-10-21T09:05:55.451Z,1.00
2018-10-21T09:08:29.598Z,1.00
2018-10-21T09:11:02.680Z,1.00
2018-10-21T09:13:35.279Z,1.00
2018-10-21T09:16:07.739Z,1.00
2018-10-21T09:18:40.181Z,1.00
2018-10-21T09:21:12.858Z,1.00
2018-10-21T09:23:45.267Z,1.00
2018-10-21T09:26:19.278Z,1.00
2018-10-21T09:28:54.384Z,1.00
2018-10-21T09:31:28.314Z,1.10
2018-10-21T09:34:03.166Z,1.10
2018-10-21T09:36:38.898Z,1.10
2018-10-21T09:39:16.576Z,1.20
2018-10-21T09:41:50.601Z,1.20
2018-10-21T09:44:23.680Z,1.10
2018-10-21T09:46:58.578Z,1.10
2018-10-21T09:49:33.284Z,1.10
2018-10-21T09:52:07.459Z,1.10
2018-10-21T09:54:42.803Z,1.10
2018-10-21T09:57:17.305Z,1.10
2018-10-21T09:59:53.396Z,1.10
2018-10-21T10:02:32.577Z,1.20
2018-10-21T10:05:06.869Z,1.20
2018-10-21T10:07:41.216Z,1.20
2018-10-21T10:10:16.163Z,1.20
2018-10-21T10:12:51.052Z,1.30
2018-10-21T10:15:26.146Z,1.30
2018-10-21T10:18:00.429Z,1.30
2018-10-21T10:20:35.274Z,1.30
2018-10-21T10:23:09.220Z,1.30
2018-10-21T10:25:45.045Z,1.30
2018-10-21T10:28:21.354Z,1.30
2018-10-21T10:30:56.852Z,1.30
2018-10-21T10:33:32.157Z,1.30
2018-10-21T10:36:07.685Z,1.30
2018-10-21T10:38:41.709Z,1.30
2018-10-21T10:41:16.643Z,1.30
2018-10-21T10:43:50.385Z,1.30
2018-10-21T10:46:25.391Z,1.20
2018-10-21T10:49:01.320Z,1.20
2018-10-21T10:51:36.869Z,1.10
2018-10-21T10:54:13.936Z,1.10
2018-10-21T10:56:47.509Z,1.10
2018-10-21T10:59:20.853Z,1.00
2018-10-21T11:01:54.188Z,1.00
2018-10-21T11:04:28.643Z,1.00
2018-10-21T11:07:01.766Z,0.90
2018-10-21T11:09:35.139Z,0.90
2018-10-21T11:12:11.367Z,0.90
2018-10-21T11:14:47.043Z,0.90
2018-10-21T11:17:21.441Z,0.80
2018-10-21T11:19:56.178Z,0.80
2018-10-21T11:22:29.828Z,0.80
2018-10-21T11:25:04.203Z,0.70
2018-10-21T11:27:38.367Z,0.70
2018-10-21T11:30:13.656Z,0.70
2018-10-21T11:32:48.647Z,0.70
2018-10-21T11:35:24.607Z,0.70
2018-10-21T11:38:00.841Z,0.70
2018-10-21T11:40:36.292Z,0.70
2018-10-21T11:43:10.267Z,0.70
2018-10-21T11:45:45.209Z,0.70
2018-10-21T11:48:18.874Z,0.70
2018-10-21T11:50:53.468Z,0.70
2018-10-21T11:53:28.756Z,0.60
2018-10-21T11:59:06.128Z,0.70
2018-10-21T12:01:39.187Z,0.60
2018-10-21T12:04:12.956Z,0.60
2018-10-21T12:06:47.341Z,0.70
2018-10-21T12:09:19.891Z,0.70
2018-10-21T12:12:23.067Z,0.80
2018-10-21T12:14:56.895Z,0.80
2018-10-21T12:17:29.844Z,0.90
2018-10-21T12:20:02.199Z,0.90
2018-10-21T12:22:35.907Z,0.90
2018-10-21T12:25:08.805Z,1.00
2018-10-21T12:27:41.707Z,1.00
2018-10-21T12:30:14.561Z,1.00
2018-10-21T12:32:48.099Z,1.10
2018-10-21T12:35:22.011Z,1.10
2018-10-21T12:37:55.705Z,1.10
2018-10-21T12:40:28.239Z,1.20
2018-10-21T12:43:01.150Z,1.20
2018-10-21T12:45:34.745Z,1.10
2018-10-21T12:48:08.173Z,1.10
2018-10-21T12:50:41.324Z,1.10
2018-10-21T12:53:13.912Z,1.00
2018-10-21T12:55:49.298Z,1.00
2018-10-21T12:58:24.236Z,1.00
2018-10-21T13:00:58.370Z,0.90
2018-10-21T13:03:31.615Z,0.90
2018-10-21T13:06:06.233Z,0.90
2018-10-21T13:08:38.145Z,1.00
2018-10-21T13:11:12.086Z,1.00
2018-10-21T13:13:45.572Z,1.10
2018-10-21T13:16:18.322Z,1.10
2018-10-21T13:18:51.114Z,1.10
2018-10-21T13:21:23.948Z,1.20
2018-10-21T13:23:58.188Z,1.20
2018-10-21T13:26:32.193Z,1.30
2018-10-21T13:29:06.018Z,1.30
2018-10-21T13:31:38.170Z,1.40
2018-10-21T13:34:11.404Z,1.50
2018-10-21T13:36:44.998Z,1.50
2018-10-21T13:39:19.738Z,1.50
2018-10-21T13:41:52.495Z,1.50
2018-10-21T13:44:25.044Z,1.40
2018-10-21T13:47:07.621Z,1.40
2018-10-21T13:49:41.115Z,1.40
2018-10-21T13:52:14.370Z,1.30
2018-10-21T13:54:46.557Z,1.30
2018-10-21T13:57:19.187Z,1.30
2018-10-21T13:59:51.644Z,1.30
2018-10-21T14:02:24.383Z,1.30
2018-10-21T14:04:56.707Z,1.40
2018-10-21T14:07:28.412Z,1.50
2018-10-21T14:10:00.502Z,1.60
2018-10-21T14:12:32.063Z,1.70
2018-10-21T14:15:05.704Z,1.70
2018-10-21T14:17:38.004Z,1.70
2018-10-21T14:20:12.450Z,1.70
2018-10-21T14:22:44.918Z,1.70
2018-10-21T14:25:18.749Z,1.70
2018-10-21T14:27:51.872Z,1.90
2018-10-21T14:30:24.157Z,2.00
2018-10-21T14:32:57.224Z,2.00
2018-10-21T14:35:30.651Z,1.80
2018-10-21T14:38:03.420Z,1.70
2018-10-21T14:40:36.317Z,1.60
2018-10-21T14:43:08.799Z,1.50
2018-10-21T14:45:41.708Z,1.50
2018-10-21T14:48:28.325Z,1.50
2018-10-21T14:54:03.849Z,1.80
2018-10-21T14:56:36.148Z,2.10
2018-10-21T14:59:08.829Z,2.20
2018-10-21T15:01:41.674Z,2.10
2018-10-21T15:04:13.079Z,2.20
2018-10-21T15:06:47.060Z,2.10
2018-10-21T15:09:18.807Z,2.20
2018-10-21T15:11:52.255Z,2.30
2018-10-21T15:14:25.099Z,2.70
2018-10-21T15:16:57.378Z,2.90
2018-10-21T15:19:29.579Z,3.00
2018-10-21T15:22:02.105Z,3.00
2018-10-21T15:24:34.575Z,2.70
2018-10-21T15:27:09.073Z,2.40
2018-10-21T15:29:43.205Z,2.20
2018-10-21T15:32:16.519Z,2.10
2018-10-21T15:34:50.218Z,2.20
2018-10-21T15:37:24.687Z,2.40
2018-10-21T15:39:57.638Z,2.80
2018-10-21T15:42:29.786Z,3.00
2018-10-21T15:45:04.774Z,3.00
2018-10-21T15:47:39.327Z,3.10
2018-10-21T15:50:13.066Z,3.30
2018-10-21T15:52:45.562Z,3.50
2018-10-21T15:55:19.139Z,3.50
2018-10-21T15:57:52.229Z,3.50
2018-10-21T16:00:26.642Z,3.90
2018-10-21T16:02:59.628Z,3.70
2018-10-21T16:05:32.947Z,3.70
2018-10-21T16:08:06.876Z,3.70
2018-10-21T16:10:41.839Z,3.40
2018-10-21T16:13:15.429Z,3.30
2018-10-21T16:15:48.134Z,3.60
2018-10-21T16:18:21.249Z,4.00
2018-10-21T16:20:55.459Z,3.60
2018-10-21T16:23:29.507Z,3.30
2018-10-21T16:26:03.828Z,2.90
2018-10-21T16:28:37.010Z,2.80
2018-10-21T16:31:10.309Z,2.80
2018-10-21T16:33:43.161Z,3.00
2018-10-21T16:36:16.910Z,3.20
2018-10-21T16:38:50.998Z,3.30
2018-10-21T16:41:28.262Z,3.30
2018-10-21T16:44:01.782Z,3.30
2018-10-21T16:46:36.457Z,4.00
2018-10-21T16:49:11.536Z,4.00
2018-10-21T16:51:43.712Z,4.10
2018-10-21T16:54:17.265Z,4.10
2018-10-21T16:56:51.216Z,4.00
2018-10-21T16:59:24.454Z,4.00
2018-10-21T17:01:59.047Z,3.90
2018-10-21T17:04:34.033Z,3.80
2018-10-21T17:07:07.667Z,3.70
2018-10-21T17:09:40.570Z,3.70
2018-10-21T17:12:12.276Z,3.80
2018-10-21T17:14:45.100Z,4.00
2018-10-21T17:17:19.410Z,4.00
2018-10-21T17:19:53.123Z,4.00
2018-10-21T17:22:25.486Z,4.20
2018-10-21T17:24:57.876Z,4.20
2018-10-21T17:27:30.038Z,4.10
2018-10-21T17:30:03.267Z,4.00
2018-10-21T17:32:36.912Z,4.10
2018-10-21T17:35:10.820Z,4.10
2018-10-21T17:37:43.679Z,4.10
2018-10-21T17:40:17.301Z,3.90
2018-10-21T17:42:50.716Z,3.80
2018-10-21T17:45:23.157Z,3.80
2018-10-21T17:47:56.080Z,3.80
2018-10-21T17:50:28.257Z,3.90
2018-10-21T17:53:00.776Z,4.00
2018-10-21T17:55:33.176Z,4.30
2018-10-21T17:58:07.525Z,4.60
2018-10-21T18:00:40.275Z,4.40
2018-10-21T18:03:13.072Z,4.20
2018-10-21T18:05:46.900Z,4.00
2018-10-21T18:08:19.442Z,3.90
2018-10-21T18:10:52.212Z,3.90
2018-10-21T18:13:25.192Z,4.10
2018-10-21T18:15:58.394Z,4.30
2018-10-21T18:18:30.474Z,4.30
2018-10-21T18:21:03.005Z,4.20
2018-10-21T18:23:35.915Z,4.00
2018-10-21T18:26:08.100Z,4.00
2018-10-21T18:28:40.851Z,3.90
2018-10-21T18:31:15.180Z,4.00
2018-10-21T18:33:48.851Z,4.20
2018-10-21T18:36:21.281Z,4.70
2018-10-21T18:38:55.013Z,4.60
2018-10-21T18:41:28.584Z,4.70
2018-10-21T18:44:02.030Z,4.70
2018-10-21T18:46:35.627Z,4.50
2018-10-21T18:49:09.487Z,4.40
2018-10-21T18:51:41.156Z,4.10
2018-10-21T18:54:12.524Z,4.00
2018-10-21T18:56:43.894Z,4.10
2018-10-21T18:59:15.444Z,4.00
2018-10-21T19:01:46.690Z,4.00
2018-10-21T19:04:18.076Z,4.60
2018-10-21T19:06:49.918Z,5.40
2018-10-21T19:09:21.597Z,5.40
2018-10-21T19:11:53.156Z,4.90
2018-10-21T19:14:24.660Z,4.60
2018-10-21T19:16:56.474Z,4.40
2018-10-21T19:22:25.070Z,4.50
2018-10-21T19:28:00.041Z,4.30
2018-10-21T19:30:31.452Z,4.20
2018-10-21T19:33:03.234Z,4.20
2018-10-21T19:35:36.213Z,4.20
2018-10-21T19:38:08.641Z,4.30
2018-10-21T19:40:40.663Z,4.60
2018-10-21T19:43:12.561Z,4.70
2018-10-21T19:45:44.749Z,4.50
2018-10-21T19:48:16.604Z,4.20
2018-10-21T19:50:48.350Z,4.10
2018-10-21T19:53:20.062Z,3.90
2018-10-21T19:55:51.706Z,3.80
2018-10-21T19:58:24.316Z,3.80
2018-10-21T20:00:57.636Z,3.90
2018-10-21T20:03:30.268Z,3.90
2018-10-21T20:06:04.523Z,4.20
2018-10-21T20:08:36.052Z,4.50
2018-10-21T20:11:08.695Z,4.20
2018-10-21T20:13:40.083Z,3.90
2018-10-21T20:16:12.793Z,3.80
2018-10-21T20:18:45.705Z,3.70
2018-10-21T20:21:21.939Z,3.70
2018-10-21T20:23:56.879Z,3.70
2018-10-21T20:26:29.298Z,3.70
2018-10-21T20:29:02.621Z,4.20
2018-10-21T20:31:35.549Z,4.40
2018-10-21T20:34:07.960Z,4.20
2018-10-21T20:36:40.026Z,4.50
2018-10-21T20:39:12.696Z,4.80
2018-10-21T20:41:45.371Z,4.90
2018-10-21T20:44:17.316Z,4.40
2018-10-21T20:46:49.493Z,3.90
2018-10-21T20:49:22.646Z,3.60
2018-10-21T20:51:55.006Z,3.40
2018-10-21T20:54:59.619Z,3.30
2018-10-21T20:57:31.459Z,3.20
2018-10-21T21:00:03.501Z,3.00
2018-10-21T21:02:35.807Z,3.00
2018-10-21T21:05:08.477Z,3.00
2018-10-21T21:07:40.230Z,3.10
2018-10-21T21:10:12.981Z,3.00
2018-10-21T21:12:45.616Z,2.90
2018-10-21T21:15:19.231Z,3.10
2018-10-21T21:17:51.874Z,3.10
2018-10-21T21:20:23.987Z,2.90
2018-10-21T21:22:57.699Z,2.80
2018-10-21T21:25:30.828Z,2.70
2018-10-21T21:28:03.737Z,2.70
2018-10-21T21:30:36.384Z,2.70
2018-10-21T21:33:09.542Z,2.70
2018-10-21T21:35:42.375Z,2.80
2018-10-21T21:38:14.808Z,2.80
2018-10-21T21:40:48.025Z,2.80
2018-10-21T21:43:20.310Z,2.80
2018-10-21T21:45:52.240Z,2.80
2018-10-21T21:48:25.298Z,2.70
2018-10-21T21:50:56.747Z,2.60
2018-10-21T21:53:29.879Z,2.40
2018-10-21T21:56:01.749Z,2.30
2018-10-21T21:58:34.426Z,2.30
2018-10-21T22:01:07.443Z,2.30
2018-10-21T22:03:39.385Z,2.30
2018-10-21T22:06:12.492Z,2.30
2018-10-21T22:08:43.972Z,2.30
2018-10-21T22:11:19.286Z,2.20
2018-10-21T22:13:51.745Z,2.10
2018-10-21T22:16:24.461Z,2.10
2018-10-21T22:18:56.818Z,2.10
2018-10-21T22:21:28.699Z,2.10
2018-10-21T22:24:01.301Z,2.10
2018-10-21T22:26:34.544Z,2.10
2018-10-21T22:29:07.459Z,2.00
2018-10-21T22:31:40.322Z,2.00
2018-10-21T22:34:13.052Z,2.00
2018-10-21T22:36:45.525Z,2.00
2018-10-21T22:39:17.370Z,1.90
2018-10-21T22:41:48.962Z,1.80
2018-10-21T22:44:20.749Z,1.80
2018-10-21T22:46:53.456Z,1.70
2018-10-21T22:49:25.625Z,1.70
2018-10-21T22:51:58.914Z,1.50
2018-10-21T22:54:30.954Z,1.30
2018-10-21T22:57:03.376Z,1.20
2018-10-21T22:59:36.049Z,1.20
2018-10-21T23:02:07.868Z,1.10
2018-10-21T23:04:40.530Z,1.00
2018-10-21T23:07:13.364Z,1.00
2018-10-21T23:09:44.553Z,0.90
2018-10-21T23:12:16.952Z,0.90
2018-10-21T23:14:50.008Z,0.90
2018-10-21T23:17:22.548Z,0.90
2018-10-21T23:19:55.123Z,0.70
2018-10-21T23:22:28.108Z,0.80
2018-10-21T23:25:01.787Z,0.80
2018-10-21T23:27:33.940Z,0.70
2018-10-21T23:30:06.878Z,0.50
2018-10-21T23:32:39.443Z,0.40
2018-10-21T23:35:11.123Z,0.40
2018-10-21T23:37:43.697Z,0.40
2018-10-21T23:40:26.268Z,0.30
2018-10-21T23:42:58.199Z,0.20
2018-10-21T23:45:30.177Z,0.30
2018-10-21T23:48:02.908Z,0.20
2018-10-21T23:50:35.343Z,0.00
2018-10-21T23:53:07.473Z,0.00
2018-10-21T23:55:40.646Z,-0.10
2018-10-21T23:58:13.660Z,-0.10
